Terminal Aerodrome Forecast
Issued by NWS

Home | Current Version | Previous Version | Text Only | Print | Product List | Glossary On
Versions: 1 2 3 4 5 6 7 8 9 10 11 12
000
FTUS43 KSGF 201120
TAFBBG
TAF
KBBG 201120Z 2012/2112 19008G14KT P6SM OVC015 WS020/20040KT
     FM201500 17008G16KT P6SM BKN030 WS020/20040KT
     FM202300 17014KT P6SM SCT200
     FM210300 16014G20KT P6SM BKN050
     FM210600 17010G18KT P6SM BKN020=

USA.gov is the U.S. government's official web portal to all federal, state and local government web resources and services.